KSPS

Sheppard AFB / Wichita Falls Municipal Airport

Wichita Falls, Texas, USA
METAR KSPS 241452Z AUTO 15016G23KT 10SM BKN039 30/22 A2980 RMK AO2 SLP076 T03000217 53008
Observed Flight Rules
Jun-24 @ 14:52 UTC (14 minutes ago) Visual Flight Rules
Wind Visibility Clouds
150° at 16 knots
 Gusting to 23 knots
10 miles
  • Broken at 3,900' AGL
Temperatures Readings
Current 30°C / 86°F
Dewpoint 22°C / 72°F
Humidity 62%
Altimeter 29.8" Hg
Pressure 1007.6 hPa
Elevation 308
METAR KSPS 241452Z AUTO 15016G23KT 10SM BKN039 30/22 A2980 RMK AO2 SLP076 T03000217 53008
Observed Flight Rules
Jun-24 @ 14:52 UTC
(14 minutes ago)
VFR
Wind Visibility
150° at 16 knots
 Gusting to 23 knots
10 miles
Clouds
  • Broken at 3,900' AGL
Temperature Dewpoint
30°C / 86°F 22°C / 72°F
Humidity Altimeter Pressure
62% 29.8" Hg 1007.6 hPa